createdAt,value
2023-05-16T00:03:03.534Z,99318.66
2023-05-16T00:07:19.979Z,99318.44
2023-05-16T00:11:36.214Z,99310.56
2023-05-16T00:15:53.815Z,99303.28
2023-05-16T00:20:11.377Z,99307.13
2023-05-16T00:24:27.597Z,99286.38
2023-05-16T00:28:44.422Z,99291.28
2023-05-16T00:33:00.818Z,99279.78
2023-05-16T00:37:17.173Z,99278.75
2023-05-16T00:41:34.868Z,99266.00
2023-05-16T00:45:51.069Z,99280.97
2023-05-16T00:50:08.055Z,99283.06
2023-05-16T00:54:27.234Z,99283.38
2023-05-16T00:58:43.622Z,99279.31
2023-05-16T01:03:00.850Z,99280.97
2023-05-16T01:07:17.448Z,99297.13
2023-05-16T01:11:56.751Z,99302.00
2023-05-16T01:16:35.928Z,99300.66
2023-05-16T01:21:04.210Z,99293.09
2023-05-16T01:25:45.734Z,99283.56
2023-05-16T01:30:02.484Z,99281.94
2023-05-16T01:34:18.997Z,99275.19
2023-05-16T01:38:42.119Z,99257.28
2023-05-16T01:43:00.852Z,99252.03
2023-05-16T01:47:19.710Z,99267.53
2023-05-16T01:51:39.760Z,99264.50
2023-05-16T01:56:01.832Z,99258.44
2023-05-16T02:00:18.084Z,99243.41
2023-05-16T02:04:34.636Z,99253.22
2023-05-16T02:08:51.235Z,99263.25
2023-05-16T02:13:07.460Z,99269.63
2023-05-16T02:17:23.714Z,99276.06
2023-05-16T02:21:40.237Z,99264.13
2023-05-16T02:25:56.540Z,99238.31
2023-05-16T02:30:13.170Z,99230.53
2023-05-16T02:34:29.435Z,99240.75
2023-05-16T02:38:45.714Z,99250.91
2023-05-16T02:43:02.004Z,99234.25
2023-05-16T02:47:18.219Z,99231.06
2023-05-16T02:51:34.488Z,99221.91
2023-05-16T02:55:50.721Z,99201.84
2023-05-16T03:00:07.769Z,99210.56
2023-05-16T03:04:23.982Z,99225.50
2023-05-16T03:08:40.284Z,99219.97
2023-05-16T03:12:56.548Z,99233.19
2023-05-16T03:17:12.819Z,99231.44
2023-05-16T03:21:29.063Z,99234.94
2023-05-16T03:25:46.577Z,99250.25
2023-05-16T03:30:02.828Z,99229.50
2023-05-16T03:34:19.076Z,99227.66
2023-05-16T03:38:35.668Z,99238.28
2023-05-16T03:42:52.047Z,99235.94
2023-05-16T03:47:08.294Z,99236.03
2023-05-16T03:51:24.562Z,99237.09
2023-05-16T03:55:40.983Z,99253.50
2023-05-16T03:59:57.264Z,99248.06
2023-05-16T04:04:14.456Z,99230.81
2023-05-16T04:08:31.427Z,99225.38
2023-05-16T04:12:47.618Z,99240.28
2023-05-16T04:17:04.160Z,99215.31
2023-05-16T04:21:20.679Z,99225.63
2023-05-16T04:25:36.938Z,99234.09
2023-05-16T04:29:53.320Z,99242.88
2023-05-16T04:34:09.726Z,99259.31
2023-05-16T04:38:26.777Z,99247.41
2023-05-16T04:42:43.352Z,99242.75
2023-05-16T04:46:59.863Z,99247.94
2023-05-16T04:51:16.312Z,99253.75
2023-05-16T04:55:32.608Z,99260.06
2023-05-16T04:59:48.911Z,99269.00
2023-05-16T05:04:05.410Z,99264.59
2023-05-16T05:08:22.529Z,99255.81
2023-05-16T05:12:39.050Z,99262.13
2023-05-16T05:16:55.666Z,99255.41
2023-05-16T05:21:11.983Z,99240.16
2023-05-16T05:25:28.677Z,99228.22
2023-05-16T05:29:45.107Z,99238.75
2023-05-16T05:34:01.506Z,99248.25
2023-05-16T05:38:17.716Z,99251.34
2023-05-16T05:42:34.175Z,99258.28
2023-05-16T05:46:50.580Z,99260.50
2023-05-16T05:51:07.102Z,99296.12
2023-05-16T05:55:23.369Z,99302.63
2023-05-16T05:59:39.581Z,99299.84
2023-05-16T06:03:55.955Z,99299.75
2023-05-16T06:08:12.221Z,99306.31
2023-05-16T06:12:28.467Z,99302.63
2023-05-16T06:16:44.981Z,99289.25
2023-05-16T06:21:01.357Z,99277.69
2023-05-16T06:25:17.860Z,99272.66
2023-05-16T06:29:34.132Z,99268.94
2023-05-16T06:33:50.318Z,99261.66
2023-05-16T06:38:06.504Z,99279.31
2023-05-16T06:42:22.809Z,99256.31
2023-05-16T06:46:39.229Z,99250.03
2023-05-16T06:50:59.627Z,99248.88
2023-05-16T06:55:16.137Z,99244.34
2023-05-16T06:59:32.894Z,99243.19
2023-05-16T07:03:49.358Z,99249.41
2023-05-16T07:08:07.849Z,99245.66
2023-05-16T07:12:24.429Z,99233.53
2023-05-16T07:16:40.855Z,99228.66
2023-05-16T07:20:57.235Z,99221.88
2023-05-16T07:25:14.766Z,99221.88
2023-05-16T07:29:31.185Z,99229.97
2023-05-16T07:33:47.645Z,99227.88
2023-05-16T07:38:04.053Z,99240.16
2023-05-16T07:42:20.360Z,99239.97
2023-05-16T07:46:36.783Z,99243.72
2023-05-16T07:50:55.627Z,99249.06
2023-05-16T07:55:12.168Z,99257.00
2023-05-16T07:59:28.753Z,99254.72
2023-05-16T08:03:45.148Z,99253.25
2023-05-16T08:08:01.459Z,99247.75
2023-05-16T08:12:17.844Z,99254.87
2023-05-16T08:16:34.302Z,99257.47
2023-05-16T08:20:51.523Z,99263.16
2023-05-16T08:25:09.267Z,99253.41
2023-05-16T08:29:25.631Z,99267.19
2023-05-16T08:33:41.829Z,99258.94
2023-05-16T08:38:00.634Z,99250.34
2023-05-16T08:42:17.028Z,99237.91
2023-05-16T08:46:36.153Z,99253.94
2023-05-16T08:50:53.595Z,99281.94
2023-05-16T08:55:11.858Z,99246.31
2023-05-16T08:59:29.221Z,99255.84
2023-05-16T09:03:45.952Z,99237.56
2023-05-16T09:08:02.564Z,99231.91
2023-05-16T09:12:20.232Z,99222.19
2023-05-16T09:16:36.554Z,99216.87
2023-05-16T09:20:53.872Z,99203.25
2023-05-16T09:29:36.972Z,99200.00
2023-05-16T09:33:59.441Z,99203.44
2023-05-16T09:38:17.525Z,99196.44
2023-05-16T09:42:33.984Z,99190.63
2023-05-16T09:46:51.403Z,99189.06
2023-05-16T09:51:08.275Z,99186.13
2023-05-16T09:55:24.600Z,99191.84
2023-05-16T09:59:43.974Z,99190.97
2023-05-16T10:04:00.477Z,99173.69
2023-05-16T10:08:16.862Z,99175.91
2023-05-16T10:12:33.538Z,99168.50
2023-05-16T10:16:50.273Z,99168.66
2023-05-16T10:21:20.010Z,99172.88
2023-05-16T10:25:41.981Z,99157.03
2023-05-16T10:29:59.024Z,99149.06
2023-05-16T10:34:16.466Z,99159.88
2023-05-16T10:38:32.845Z,99153.03
2023-05-16T10:43:04.111Z,99157.94
2023-05-16T10:47:20.875Z,99151.44
2023-05-16T10:51:39.145Z,99152.00
2023-05-16T10:56:01.655Z,99151.09
2023-05-16T11:00:24.355Z,99133.34
2023-05-16T11:04:49.801Z,99127.75
2023-05-16T11:09:12.143Z,99137.56
2023-05-16T11:13:29.039Z,99144.91
2023-05-16T11:17:46.304Z,99121.19
2023-05-16T11:22:29.697Z,99110.75
2023-05-16T11:26:46.046Z,99091.81
2023-05-16T11:31:05.529Z,99085.81
2023-05-16T11:35:21.815Z,99090.34
2023-05-16T11:39:38.168Z,99079.47
2023-05-16T11:43:54.481Z,99060.94
2023-05-16T11:48:14.416Z,99059.06
2023-05-16T11:52:33.614Z,99051.50
2023-05-16T11:56:50.794Z,99061.53
2023-05-16T12:01:08.308Z,99068.38
2023-05-16T12:05:26.660Z,99070.72
2023-05-16T12:09:43.316Z,99055.75
2023-05-16T12:14:00.418Z,99053.84
2023-05-16T12:18:33.048Z,99047.19
2023-05-16T12:22:49.854Z,99047.72
2023-05-16T12:27:08.512Z,99049.28
2023-05-16T12:31:31.805Z,99050.50
2023-05-16T12:35:48.936Z,99070.94
2023-05-16T12:40:06.569Z,99072.38
2023-05-16T12:44:23.898Z,99066.28
2023-05-16T12:48:42.803Z,99059.72
2023-05-16T12:53:01.321Z,99043.69
2023-05-16T12:57:18.011Z,99040.47
2023-05-16T13:01:36.168Z,99024.28
2023-05-16T13:05:53.473Z,99034.28
2023-05-16T13:10:11.149Z,99027.47
2023-05-16T13:14:27.506Z,99029.09
2023-05-16T13:18:43.941Z,99021.06
2023-05-16T13:23:00.289Z,99036.66
2023-05-16T13:27:21.414Z,99028.16
2023-05-16T13:31:37.902Z,99032.97
2023-05-16T13:35:55.710Z,99029.41
2023-05-16T13:40:12.355Z,99027.16
2023-05-16T13:44:28.861Z,99022.53
2023-05-16T13:48:45.182Z,98996.66
2023-05-16T13:53:01.480Z,98983.19
2023-05-16T13:57:18.149Z,98978.94
2023-05-16T14:01:36.922Z,98972.94
2023-05-16T14:05:53.335Z,98966.63
2023-05-16T14:10:10.388Z,98950.31
2023-05-16T14:14:28.603Z,98941.00
2023-05-16T14:18:45.213Z,98938.91
2023-05-16T14:23:01.874Z,98943.53
2023-05-16T14:27:18.416Z,98957.00
2023-05-16T14:31:40.691Z,98941.78
2023-05-16T14:35:57.122Z,98955.94
2023-05-16T14:40:13.627Z,98948.16
2023-05-16T14:44:30.619Z,98949.31
2023-05-16T14:48:48.354Z,98953.56
2023-05-16T14:53:05.063Z,98966.03
2023-05-16T14:57:21.451Z,98967.16
2023-05-16T15:01:38.275Z,98962.13
2023-05-16T15:05:55.548Z,98973.72
2023-05-16T15:10:12.771Z,98961.84
2023-05-16T15:14:35.122Z,98967.84
2023-05-16T15:18:52.316Z,98961.38
2023-05-16T15:23:09.651Z,98951.72
2023-05-16T15:27:26.478Z,98947.09
2023-05-16T15:31:42.914Z,98950.56
2023-05-16T15:35:59.286Z,98954.63
2023-05-16T15:40:15.909Z,98955.22
2023-05-16T15:44:32.528Z,98959.56
2023-05-16T15:48:49.040Z,98957.81
2023-05-16T15:53:05.397Z,98958.94
2023-05-16T15:57:21.955Z,98957.31
2023-05-16T16:01:38.307Z,98941.69
2023-05-16T16:05:54.811Z,98954.31
2023-05-16T16:10:13.174Z,98951.09
2023-05-16T16:14:29.580Z,98951.78
2023-05-16T16:18:46.170Z,98933.16
2023-05-16T16:23:02.977Z,98923.28
2023-05-16T16:27:34.256Z,98919.81
2023-05-16T16:31:50.787Z,98927.31
2023-05-16T16:36:21.241Z,98932.91
2023-05-16T16:40:38.012Z,98943.25
2023-05-16T16:44:54.547Z,98941.44
2023-05-16T16:49:10.987Z,98939.25
2023-05-16T16:53:27.260Z,98945.09
2023-05-16T16:57:43.957Z,98945.09
2023-05-16T17:02:00.560Z,98955.44
2023-05-16T17:06:17.025Z,98957.25
2023-05-16T17:10:33.640Z,98946.63
2023-05-16T17:14:51.583Z,98943.50
2023-05-16T17:19:08.613Z,98935.31
2023-05-16T17:23:25.284Z,98943.25
2023-05-16T17:27:42.049Z,98950.97
2023-05-16T17:31:58.436Z,98953.97
2023-05-16T17:36:14.772Z,98948.03
2023-05-16T17:40:32.636Z,98943.19
2023-05-16T17:44:58.551Z,98943.78
2023-05-16T17:49:20.644Z,98945.31
2023-05-16T17:53:38.170Z,98939.50
2023-05-16T17:57:54.692Z,98947.44
2023-05-16T18:02:15.382Z,98934.31
2023-05-16T18:06:32.235Z,98935.34
2023-05-16T18:10:51.497Z,98933.97
2023-05-16T18:15:10.905Z,98929.00
2023-05-16T18:19:27.496Z,98943.06
2023-05-16T18:23:43.946Z,98951.44
2023-05-16T18:28:00.257Z,98947.66
2023-05-16T18:32:16.645Z,98958.97
2023-05-16T18:36:33.046Z,98962.81
2023-05-16T18:40:50.660Z,98952.81
2023-05-16T18:45:07.678Z,98949.03
2023-05-16T18:49:24.072Z,98948.22
2023-05-16T18:53:40.482Z,98957.47
2023-05-16T18:57:58.085Z,98940.31
2023-05-16T19:02:14.417Z,98942.34
2023-05-16T19:06:30.771Z,98936.56
2023-05-16T19:10:47.080Z,98940.63
2023-05-16T19:15:03.622Z,98936.56
2023-05-16T19:19:20.033Z,98939.44
2023-05-16T19:23:36.897Z,98938.28
2023-05-16T19:27:53.545Z,98963.69
2023-05-16T19:32:11.064Z,98962.06
2023-05-16T19:36:27.569Z,98956.56
2023-05-16T19:40:44.913Z,98959.25
2023-05-16T19:45:01.195Z,98957.50
2023-05-16T19:49:20.007Z,98957.50
2023-05-16T19:53:36.590Z,98951.59
2023-05-16T19:57:53.149Z,98950.50
2023-05-16T20:02:09.834Z,98950.34
2023-05-16T20:06:26.292Z,98956.94
2023-05-16T20:10:42.856Z,98950.09
2023-05-16T20:14:59.835Z,98950.84
2023-05-16T20:19:24.597Z,98949.28
2023-05-16T20:23:43.682Z,98949.75
2023-05-16T20:28:00.977Z,98944.06
2023-05-16T20:32:17.678Z,98936.44
2023-05-16T20:36:34.974Z,98932.66
2023-05-16T20:40:51.608Z,98936.19
2023-05-16T20:45:08.729Z,98934.22
2023-05-16T20:49:25.114Z,98932.97
2023-05-16T20:53:41.643Z,98929.38
2023-05-16T20:58:01.137Z,98923.12
2023-05-16T21:02:18.546Z,98923.31
2023-05-16T21:06:34.862Z,98935.47
2023-05-16T21:10:51.293Z,98931.38
2023-05-16T21:15:08.434Z,98935.47
2023-05-16T21:19:25.027Z,98935.59
2023-05-16T21:23:41.585Z,98940.31
2023-05-16T21:27:57.919Z,98935.88
2023-05-16T21:32:16.302Z,98942.53
2023-05-16T21:36:33.326Z,98932.38
2023-05-16T21:40:50.117Z,98935.06
2023-05-16T21:45:12.728Z,98932.38
2023-05-16T21:49:29.053Z,98928.41
2023-05-16T21:53:46.899Z,98930.69
2023-05-16T21:58:04.151Z,98928.72
2023-05-16T22:02:23.204Z,98926.16
2023-05-16T22:06:40.881Z,98932.63
2023-05-16T22:10:57.225Z,98927.88
2023-05-16T22:15:13.748Z,98913.13
2023-05-16T22:19:30.035Z,98911.97
2023-05-16T22:23:46.323Z,98910.72
2023-05-16T22:28:02.624Z,98902.00
2023-05-16T22:32:18.963Z,98908.63
2023-05-16T22:36:35.329Z,98902.00
2023-05-16T22:40:51.670Z,98907.75
2023-05-16T22:45:08.567Z,98920.44
2023-05-16T22:49:24.960Z,98923.28
2023-05-16T22:53:41.369Z,98917.97
2023-05-16T22:57:59.976Z,98913.47
2023-05-16T23:02:16.302Z,98916.09
2023-05-16T23:06:32.819Z,98920.75
2023-05-16T23:10:49.260Z,98915.75
2023-05-16T23:15:10.408Z,98903.28
2023-05-16T23:19:27.105Z,98910.03
2023-05-16T23:23:43.496Z,98904.50
2023-05-16T23:27:59.826Z,98910.69
2023-05-16T23:32:16.118Z,98907.38
2023-05-16T23:36:32.460Z,98911.25
2023-05-16T23:40:48.785Z,98913.56
2023-05-16T23:45:05.419Z,98919.91
2023-05-16T23:49:21.718Z,98936.41
2023-05-16T23:53:38.615Z,98930.69
2023-05-16T23:57:54.808Z,98923.03
